Time;durP1;ratioP1;P1;durP2;ratioP2;P2;SDS_P1;SDS_P2;PMS_P1;PMS_P2;Temp;Humidity;BMP_temperature;BMP_pressure;BME280_temperature;BME280_humidity;BME280_pressure;Samples;Min_cycle;Max_cycle;Signal;HPM_P1;HPM_P2
2022/04/15 00:01:04;;;;;;;12.07;4.73;;;23.80;44.00;;;;;;5040753;28;93693;-71
2022/04/15 00:03:33;;;;;;;8.67;5.37;;;23.80;44.00;;;;;;5039935;28;89050;-72
2022/04/15 00:06:00;;;;;;;7.20;5.20;;;23.80;44.00;;;;;;5040262;28;88908;-71
2022/04/15 00:08:29;;;;;;;9.27;5.17;;;23.80;44.00;;;;;;5038128;28;88259;-71
2022/04/15 00:10:58;;;;;;;9.13;5.03;;;23.80;44.60;;;;;;5040500;28;90536;-71
2022/04/15 00:13:31;;;;;;;8.67;5.33;;;23.80;44.00;;;;;;5037880;28;92157;-72
2022/04/15 00:16:00;;;;;;;7.57;4.93;;;23.80;44.00;;;;;;5040583;28;90067;-71
2022/04/15 00:18:35;;;;;;;10.03;4.77;;;23.80;44.70;;;;;;5038276;28;88873;-70
2022/04/15 00:21:03;;;;;;;10.30;5.33;;;23.70;43.90;;;;;;5040333;28;90641;-74
2022/04/15 00:23:31;;;;;;;7.67;5.03;;;23.70;43.90;;;;;;5039609;28;89601;-71
2022/04/15 00:25:59;;;;;;;8.20;4.03;;;23.70;43.90;;;;;;5039546;28;88808;-71
2022/04/15 00:28:27;;;;;;;10.30;5.10;;;23.70;43.90;;;;;;5036839;28;88236;-71
2022/04/15 00:30:55;;;;;;;8.97;4.47;;;23.60;43.90;;;;;;5040511;28;91550;-72
2022/04/15 00:33:23;;;;;;;9.10;4.73;;;23.60;43.90;;;;;;5039115;28;90185;-71
2022/04/15 00:35:53;;;;;;;7.83;5.30;;;23.70;43.90;;;;;;5040044;28;88338;-71
2022/04/15 00:38:21;;;;;;;8.77;4.63;;;23.60;43.90;;;;;;5040274;28;88423;-71
2022/04/15 00:40:49;;;;;;;6.60;3.73;;;23.60;43.90;;;;;;5039346;28;89853;-72
2022/04/15 00:43:17;;;;;;;9.73;5.40;;;23.60;43.90;;;;;;5038040;28;91686;-71
2022/04/15 00:45:47;;;;;;;7.83;4.10;;;23.60;43.90;;;;;;5039785;27;88519;-72
2022/04/15 00:48:16;;;;;;;9.10;4.97;;;23.60;43.90;;;;;;5040409;28;88544;-71
2022/04/15 00:50:45;;;;;;;6.40;4.17;;;23.60;44.00;;;;;;5039872;28;91047;-71
2022/04/15 00:53:17;;;;;;;6.15;4.70;;;23.60;43.90;;;;;;5039014;27;90075;-71
2022/04/15 00:55:45;;;;;;;6.43;4.43;;;23.50;44.10;;;;;;5041382;27;88389;-73
2022/04/15 00:58:13;;;;;;;9.90;4.50;;;23.60;44.10;;;;;;5039747;28;88660;-73
2022/04/15 01:00:41;;;;;;;8.63;4.97;;;23.60;44.00;;;;;;5038987;28;89485;-73
2022/04/15 01:03:09;;;;;;;7.73;4.63;;;23.60;44.00;;;;;;5037010;28;90116;-73
2022/04/15 01:05:37;;;;;;;6.50;3.70;;;23.60;44.00;;;;;;5038572;27;89370;-73
2022/04/15 01:08:08;;;;;;;6.73;4.00;;;23.60;44.10;;;;;;5039300;28;88570;-73
2022/04/15 01:10:38;;;;;;;9.53;4.13;;;23.50;44.00;;;;;;5038584;27;93921;-73
2022/04/15 01:13:07;;;;;;;8.57;4.90;;;23.50;44.10;;;;;;5038837;27;89374;-72
2022/04/15 01:15:49;;;;;;;5.73;4.23;;;23.50;44.10;;;;;;5036697;28;88997;-73
2022/04/15 01:18:17;;;;;;;5.50;3.60;;;23.50;44.70;;;;;;5039201;27;88547;-73
2022/04/15 01:20:46;;;;;;;5.97;4.17;;;23.50;44.10;;;;;;5039674;27;89544;-72
2022/04/15 01:23:16;;;;;;;7.47;4.10;;;23.50;44.20;;;;;;5039370;27;89770;-71
2022/04/15 01:25:44;;;;;;;6.17;4.10;;;23.50;44.20;;;;;;5051040;27;88770;-72
2022/04/15 01:28:16;;;;;;;7.40;4.30;;;23.40;44.10;;;;;;5044137;27;88671;-72
2022/04/15 01:30:45;;;;;;;7.57;4.00;;;23.40;44.10;;;;;;5039961;28;90947;-72
2022/04/15 01:33:13;;;;;;;6.60;4.60;;;23.40;44.10;;;;;;5040374;28;92638;-72
2022/04/15 01:35:45;;;;;;;5.53;3.73;;;23.40;44.10;;;;;;5038736;27;88411;-72
2022/04/15 01:38:14;;;;;;;8.73;4.10;;;23.40;44.20;;;;;;5040234;28;88515;-72
2022/04/15 01:40:44;;;;;;;7.27;3.97;;;23.40;44.20;;;;;;5039540;27;91028;-72
2022/04/15 01:43:12;;;;;;;7.53;4.40;;;23.40;44.20;;;;;;5039023;28;90484;-72
2022/04/15 01:45:40;;;;;;;5.93;4.43;;;23.40;44.20;;;;;;5039766;27;88890;-72
2022/04/15 01:48:09;;;;;;;6.37;4.47;;;23.40;44.20;;;;;;5039352;27;88530;-72
2022/04/15 01:50:36;;;;;;;6.13;3.70;;;23.40;44.20;;;;;;5039220;28;93655;-72
2022/04/15 01:53:04;;;;;;;6.73;5.07;;;23.30;44.10;;;;;;5039164;28;89029;-73
2022/04/15 01:55:33;;;;;;;7.50;4.50;;;23.30;44.10;;;;;;5039130;28;90182;-73
2022/04/15 01:58:03;;;;;;;6.70;4.57;;;23.30;44.10;;;;;;5037630;27;88704;-72
2022/04/15 02:00:31;;;;;;;7.97;4.03;;;23.30;44.10;;;;;;5038925;28;88971;-72
2022/04/15 02:02:59;;;;;;;5.73;3.93;;;23.30;44.20;;;;;;5038624;28;91121;-72
2022/04/15 02:05:28;;;;;;;8.00;4.60;;;23.30;44.20;;;;;;5038992;27;89114;-72
2022/04/15 02:07:56;;;;;;;6.93;4.10;;;23.30;44.10;;;;;;5039521;28;88562;-72
2022/04/15 02:10:24;;;;;;;7.63;4.10;;;23.20;44.00;;;;;;5039632;28;90287;-72
2022/04/15 02:12:52;;;;;;;9.90;5.67;;;23.20;44.10;;;;;;5038709;28;89985;-72
2022/04/15 02:15:21;;;;;;;7.77;5.43;;;23.20;44.00;;;;;;5038659;28;88360;-72
2022/04/15 02:17:49;;;;;;;6.47;5.00;;;23.20;44.00;;;;;;5039565;27;88605;-72
2022/04/15 02:20:17;;;;;;;8.97;5.67;;;23.20;44.00;;;;;;5042597;27;91236;-73
2022/04/15 02:22:45;;;;;;;11.40;5.80;;;23.20;44.00;;;;;;5042864;28;92909;-73
2022/04/15 02:25:13;;;;;;;7.83;5.10;;;23.20;44.00;;;;;;5043203;28;88909;-72
2022/04/15 02:27:44;;;;;;;6.83;4.80;;;23.20;44.00;;;;;;5041952;28;88418;-73
2022/04/15 02:30:12;;;;;;;11.77;5.60;;;23.10;43.90;;;;;;5040814;27;90609;-72
2022/04/15 02:32:41;;;;;;;11.13;5.87;;;23.10;43.90;;;;;;5042065;28;89135;-73
2022/04/15 02:35:10;;;;;;;10.57;5.50;;;23.00;43.90;;;;;;5042391;27;88582;-72
2022/04/15 02:37:38;;;;;;;10.77;6.63;;;23.00;43.90;;;;;;5042508;27;88620;-72
2022/04/15 02:40:07;;;;;;;10.67;5.90;;;23.00;43.90;;;;;;5042012;27;90105;-72
2022/04/15 02:42:35;;;;;;;10.67;5.43;;;22.90;43.90;;;;;;5041120;28;90284;-73
2022/04/15 02:45:04;;;;;;;11.27;5.53;;;22.90;43.90;;;;;;5042116;28;89681;-73
2022/04/15 02:47:34;;;;;;;9.63;5.37;;;22.90;43.90;;;;;;5043013;28;88367;-72
2022/04/15 02:50:04;;;;;;;9.03;5.37;;;22.90;43.90;;;;;;5042808;28;89279;-72
2022/04/15 02:52:33;;;;;;;8.13;5.20;;;22.90;44.60;;;;;;5031520;28;92515;-72
2022/04/15 02:55:01;;;;;;;7.50;4.70;;;22.90;43.90;;;;;;5042132;27;88402;-72
2022/04/15 02:57:29;;;;;;;8.77;5.60;;;22.90;43.90;;;;;;5042560;28;88625;-72
2022/04/15 02:59:58;;;;;;;7.70;5.03;;;22.90;43.90;;;;;;5041054;27;89495;-72
2022/04/15 03:02:26;;;;;;;10.13;5.90;;;22.90;43.90;;;;;;5042000;28;89524;-72
2022/04/15 03:04:54;;;;;;;9.97;6.20;;;22.80;43.90;;;;;;5041858;28;89136;-72
2022/04/15 03:07:24;;;;;;;8.23;5.67;;;22.80;43.90;;;;;;5042776;28;89023;-72
2022/04/15 03:09:52;;;;;;;9.70;5.93;;;22.70;43.90;;;;;;5037769;28;89611;-72
2022/04/15 03:12:20;;;;;;;8.20;6.00;;;22.70;43.90;;;;;;5042222;28;89483;-72
2022/04/15 03:14:50;;;;;;;8.73;4.90;;;22.70;43.90;;;;;;5039769;28;91284;-72
2022/04/15 03:17:18;;;;;;;9.17;5.23;;;22.70;44.00;;;;;;5042187;27;88673;-72
2022/04/15 03:19:46;;;;;;;9.53;5.37;;;22.70;44.60;;;;;;5041386;28;90737;-72
2022/04/15 03:22:14;;;;;;;8.37;5.43;;;22.70;44.00;;;;;;5041788;28;91748;-72
2022/04/15 03:24:43;;;;;;;10.10;5.57;;;22.70;44.00;;;;;;5042109;27;89892;-72
2022/04/15 03:27:11;;;;;;;10.80;6.17;;;22.70;43.90;;;;;;5041741;28;88661;-72
2022/04/15 03:29:39;;;;;;;9.17;5.67;;;22.60;43.90;;;;;;5040377;28;90631;-72
2022/04/15 03:32:08;;;;;;;9.90;5.57;;;22.50;43.90;;;;;;5041225;27;88975;-72
2022/04/15 03:34:36;;;;;;;9.13;5.53;;;22.50;44.00;;;;;;5040895;28;88684;-72
2022/04/15 03:37:04;;;;;;;8.87;4.93;;;22.50;44.10;;;;;;5042446;28;88727;-72
2022/04/15 03:39:33;;;;;;;7.17;5.57;;;22.40;43.90;;;;;;5040719;28;91791;-72
2022/04/15 03:42:02;;;;;;;6.93;4.73;;;22.50;44.00;;;;;;5041273;27;90273;-72
2022/04/15 03:44:30;;;;;;;11.80;4.90;;;22.50;44.00;;;;;;5041944;28;90677;-72
2022/04/15 03:46:58;;;;;;;10.33;5.07;;;22.60;44.00;;;;;;5041243;28;88426;-72
2022/04/15 03:49:26;;;;;;;7.97;4.90;;;22.60;44.00;;;;;;5041467;27;90646;-72
2022/04/15 03:51:54;;;;;;;6.67;4.90;;;22.60;44.00;;;;;;5040895;28;93500;-72
2022/04/15 03:54:22;;;;;;;8.17;5.10;;;22.60;44.00;;;;;;5041710;27;89102;-72
2022/04/15 03:56:50;;;;;;;6.60;4.27;;;22.60;44.00;;;;;;5040004;27;88723;-72
2022/04/15 03:59:20;;;;;;;10.03;4.90;;;22.50;43.90;;;;;;5040868;27;88512;-72
2022/04/15 04:01:48;;;;;;;5.03;4.30;;;22.50;43.90;;;;;;5040681;28;90159;-72
2022/04/15 04:04:16;;;;;;;7.17;4.90;;;22.40;43.90;;;;;;5040858;27;89188;-72
2022/04/15 04:06:44;;;;;;;7.50;4.40;;;22.40;44.00;;;;;;5040798;27;88625;-72
2022/04/15 04:09:12;;;;;;;5.97;4.17;;;22.30;43.90;;;;;;5042846;27;88495;-72
2022/04/15 04:11:40;;;;;;;7.93;4.20;;;22.30;44.60;;;;;;5041248;28;88979;-72
2022/04/15 04:14:08;;;;;;;5.80;4.03;;;22.40;44.10;;;;;;5045249;27;88981;-72
2022/04/15 04:16:43;;;;;;;5.97;3.77;;;22.40;44.10;;;;;;5036433;28;88533;-72
2022/04/15 04:19:11;;;;;;;5.57;4.23;;;22.40;44.10;;;;;;5041236;28;88402;-72
2022/04/15 04:21:39;;;;;;;4.53;3.60;;;22.40;44.10;;;;;;5040590;27;90528;-72
2022/04/15 04:24:07;;;;;;;5.97;3.87;;;22.50;44.20;;;;;;5044568;27;89905;-72
2022/04/15 04:26:35;;;;;;;5.73;3.70;;;22.50;44.20;;;;;;5041028;27;88345;-72
2022/04/15 04:29:03;;;;;;;5.83;3.90;;;22.40;44.10;;;;;;5041152;27;89550;-72
2022/04/15 04:31:36;;;;;;;6.37;4.20;;;22.40;44.10;;;;;;5042629;27;89557;-72
2022/04/15 04:34:05;;;;;;;5.80;3.90;;;22.40;44.10;;;;;;5035697;27;88496;-72
2022/04/15 04:36:33;;;;;;;4.77;3.60;;;22.40;44.10;;;;;;5034910;27;88253;-72
2022/04/15 04:39:01;;;;;;;6.53;4.40;;;22.40;44.10;;;;;;5035519;27;90323;-72
2022/04/15 04:41:29;;;;;;;5.80;3.57;;;22.40;44.10;;;;;;5037814;27;90395;-72
2022/04/15 04:43:57;;;;;;;4.93;3.53;;;22.40;44.10;;;;;;5037518;27;88669;-72
2022/04/15 04:46:25;;;;;;;5.93;3.27;;;22.40;44.10;;;;;;5037528;28;88548;-72
2022/04/15 04:48:53;;;;;;;5.40;3.90;;;22.40;44.10;;;;;;5038373;27;89890;-72
2022/04/15 04:51:23;;;;;;;5.47;4.13;;;22.40;44.10;;;;;;5036724;27;91908;-72
2022/04/15 04:53:51;;;;;;;4.40;3.63;;;22.30;44.00;;;;;;5040111;28;89088;-72
2022/04/15 04:56:19;;;;;;;7.30;3.67;;;22.30;44.10;;;;;;5043229;27;90644;-72
2022/04/15 04:58:46;;;;;;;6.77;3.43;;;22.20;44.10;;;;;;5039875;27;89839;-72
2022/04/15 05:01:15;;;;;;;5.10;3.93;;;22.20;44.20;;;;;;5039649;27;89838;-72
2022/04/15 05:03:43;;;;;;;4.67;3.40;;;22.20;44.20;;;;;;5040379;28;88787;-72
2022/04/15 05:06:11;;;;;;;4.17;3.40;;;22.10;44.20;;;;;;5039733;28;88515;-72
2022/04/15 05:08:40;;;;;;;5.30;3.40;;;22.10;44.20;;;;;;5039952;28;91873;-72
2022/04/15 05:11:08;;;;;;;5.17;3.73;;;22.10;44.20;;;;;;5039942;27;90469;-72
2022/04/15 05:13:36;;;;;;;4.50;3.33;;;22.10;44.20;;;;;;5042675;27;91664;-72
2022/04/15 05:16:05;;;;;;;4.33;3.03;;;22.10;44.20;;;;;;5038064;27;88494;-72
2022/04/15 05:18:34;;;;;;;5.53;3.20;;;22.10;44.20;;;;;;5039467;27;89826;-72
2022/04/15 05:21:02;;;;;;;4.63;3.60;;;22.10;44.20;;;;;;5038347;27;89155;-68
2022/04/15 05:23:30;;;;;;;4.73;3.40;;;22.10;44.20;;;;;;5039353;27;88413;-68
2022/04/15 05:25:59;;;;;;;6.87;3.33;;;22.10;44.30;;;;;;5040207;27;88610;-67
2022/04/15 05:28:28;;;;;;;6.07;3.70;;;22.00;44.40;;;;;;5041250;27;89903;-69
2022/04/15 05:30:56;;;;;;;4.73;3.43;;;22.10;44.60;;;;;;5040402;27;89235;-68
2022/04/15 05:33:28;;;;;;;5.87;4.03;;;22.10;44.80;;;;;;5037796;28;90046;-68
2022/04/15 05:35:56;;;;;;;7.07;3.13;;;22.10;45.00;;;;;;5035650;28;88558;-69
2022/04/15 05:38:24;;;;;;;5.23;2.87;;;22.10;45.10;;;;;;5039203;28;90174;-69
2022/04/15 05:40:52;;;;;;;3.70;2.80;;;22.10;45.20;;;;;;5038501;28;92711;-72
2022/04/15 05:43:21;;;;;;;6.97;2.80;;;22.10;45.20;;;;;;5036539;28;89218;-72
2022/04/15 05:45:49;;;;;;;5.20;3.17;;;22.20;45.90;;;;;;5039351;28;88711;-70
2022/04/15 05:48:17;;;;;;;3.87;2.83;;;22.20;45.40;;;;;;5039234;28;89016;-69
2022/04/15 05:50:45;;;;;;;5.43;3.20;;;22.20;45.50;;;;;;5039171;28;90121;-70
2022/04/15 05:53:13;;;;;;;4.93;2.90;;;22.10;45.50;;;;;;5039164;28;90690;-69
2022/04/15 05:55:41;;;;;;;6.47;3.30;;;22.10;45.60;;;;;;5039413;28;88496;-69
2022/04/15 05:58:10;;;;;;;16.80;2.87;;;22.10;45.70;;;;;;5038664;27;89677;-70
2022/04/15 06:00:39;;;;;;;4.93;3.23;;;22.10;46.00;;;;;;5038953;27;88790;-70
2022/04/15 06:03:08;;;;;;;5.20;2.70;;;22.10;46.10;;;;;;5039166;28;88590;-69
2022/04/15 06:05:37;;;;;;;5.23;2.70;;;22.10;46.10;;;;;;5039257;27;88683;-70
2022/04/15 06:08:05;;;;;;;2.90;2.27;;;22.10;46.20;;;;;;5039673;28;90713;-69
2022/04/15 06:10:33;;;;;;;5.93;2.83;;;22.10;46.30;;;;;;5038563;28;90150;-69
2022/04/15 06:13:04;;;;;;;3.37;2.70;;;22.10;46.30;;;;;;5037478;27;91563;-70
2022/04/15 06:15:34;;;;;;;3.97;1.80;;;22.00;46.20;;;;;;5044639;27;88423;-70
2022/04/15 06:18:04;;;;;;;5.53;2.33;;;22.00;47.00;;;;;;5038266;27;89775;-70
2022/04/15 06:20:32;;;;;;;4.00;2.10;;;22.00;46.50;;;;;;5036767;27;89646;-71
2022/04/15 06:23:00;;;;;;;5.10;2.10;;;22.00;46.50;;;;;;5038479;27;88756;-69
2022/04/15 06:25:29;;;;;;;4.50;2.30;;;22.00;46.60;;;;;;5041613;27;88446;-67
2022/04/15 06:27:57;;;;;;;2.27;1.90;;;22.10;46.80;;;;;;5046397;27;89334;-66
2022/04/15 06:30:25;;;;;;;1.67;1.27;;;22.10;46.90;;;;;;5038529;27;90086;-67
2022/04/15 06:32:53;;;;;;;4.00;1.83;;;22.10;46.90;;;;;;5035730;27;88560;-67
2022/04/15 06:35:22;;;;;;;4.60;2.30;;;22.20;47.70;;;;;;5037795;27;88488;-67
2022/04/15 06:37:51;;;;;;;4.13;2.00;;;22.20;47.10;;;;;;5037888;27;90788;-67
2022/04/15 06:40:19;;;;;;;3.97;2.20;;;22.30;47.20;;;;;;5038971;28;89525;-68
2022/04/15 06:42:47;;;;;;;2.53;2.00;;;22.30;47.30;;;;;;5038785;28;90182;-66
2022/04/15 06:45:15;;;;;;;2.20;1.70;;;22.30;47.40;;;;;;5035008;27;88646;-71
2022/04/15 06:47:43;;;;;;;4.10;2.03;;;22.40;47.60;;;;;;5040459;27;90661;-72
2022/04/15 06:50:11;;;;;;;2.90;1.97;;;22.40;47.70;;;;;;5038770;27;92183;-73
2022/04/15 06:52:40;;;;;;;1.93;1.70;;;22.40;47.70;;;;;;5038932;27;88900;-73
2022/04/15 06:55:09;;;;;;;3.23;1.43;;;22.40;47.70;;;;;;5036687;28;88593;-71
2022/04/15 06:57:37;;;;;;;6.17;1.77;;;22.40;47.70;;;;;;5038311;27;89676;-71
2022/04/15 07:00:09;;;;;;;3.27;1.73;;;22.50;47.80;;;;;;5037874;27;89125;-73
2022/04/15 07:02:37;;;;;;;3.10;1.53;;;22.40;47.60;;;;;;5038491;27;88443;-72
2022/04/15 07:05:06;;;;;;;5.50;1.87;;;22.50;47.60;;;;;;5042077;27;88680;-72
2022/04/15 07:07:34;;;;;;;1.60;1.50;;;22.50;47.60;;;;;;5042543;27;89364;-72
2022/04/15 07:10:05;;;;;;;3.33;1.57;;;22.50;48.30;;;;;;5041249;28;92201;-72
2022/04/15 07:12:33;;;;;;;2.67;1.57;;;22.50;47.70;;;;;;5042339;28;88420;-69
2022/04/15 07:15:01;;;;;;;3.70;1.50;;;22.40;47.60;;;;;;5040135;28;88727;-70
2022/04/15 07:17:29;;;;;;;1.70;1.37;;;22.50;47.60;;;;;;5034125;27;90542;-71
2022/04/15 07:19:58;;;;;;;3.23;1.90;;;22.50;47.60;;;;;;5039275;28;89333;-72
2022/04/15 07:22:26;;;;;;;5.13;1.60;;;22.40;47.50;;;;;;5040036;28;88847;-72
2022/04/15 07:24:54;;;;;;;5.97;1.37;;;22.40;47.60;;;;;;5037880;28;88526;-69
2022/04/15 07:27:23;;;;;;;3.87;1.83;;;22.50;47.60;;;;;;5038769;28;90623;-69
2022/04/15 07:29:51;;;;;;;2.67;1.50;;;22.40;47.60;;;;;;5038015;27;90371;-69
2022/04/15 07:32:22;;;;;;;2.03;1.83;;;22.40;48.20;;;;;;5040512;27;88934;-69
2022/04/15 07:34:50;;;;;;;3.93;1.70;;;22.50;47.60;;;;;;5038110;27;88476;-69
2022/04/15 07:37:18;;;;;;;5.50;2.23;;;22.40;47.50;;;;;;5040776;28;90600;-69
2022/04/15 07:39:49;;;;;;;2.50;1.70;;;22.40;47.40;;;;;;5040162;28;90375;-69
2022/04/15 07:42:17;;;;;;;2.33;1.43;;;22.40;47.40;;;;;;5040470;28;90986;-68
2022/04/15 07:44:46;;;;;;;1.97;1.77;;;22.50;47.40;;;;;;5039688;28;88427;-69
2022/04/15 07:47:15;;;;;;;2.27;1.50;;;22.40;47.30;;;;;;5040174;28;93381;-68
2022/04/15 07:49:59;;;;;;;3.87;1.60;;;22.40;47.30;;;;;;5038767;28;89000;-68
2022/04/15 07:52:27;;;;;;;2.90;1.87;;;22.40;47.20;;;;;;5040413;28;88423;-68
2022/04/15 07:54:55;;;;;;;2.20;1.60;;;22.50;47.20;;;;;;5040729;28;88543;-69
2022/04/15 07:57:27;;;;;;;2.77;1.90;;;22.50;47.20;;;;;;5041806;27;90704;-70
2022/04/15 07:59:57;;;;;;;1.93;1.60;;;22.50;47.20;;;;;;5038783;27;91093;-69
2022/04/15 08:02:25;;;;;;;2.83;1.40;;;22.40;47.00;;;;;;5039927;28;89272;-69
2022/04/15 08:04:53;;;;;;;3.53;1.93;;;22.40;46.90;;;;;;5039956;27;88524;-69
2022/04/15 08:07:22;;;;;;;7.17;2.10;;;22.40;46.90;;;;;;5040614;28;89379;-73
2022/04/15 08:09:50;;;;;;;2.27;1.80;;;22.40;46.80;;;;;;5037477;28;91496;-73
2022/04/15 08:12:18;;;;;;;2.93;1.70;;;22.40;46.80;;;;;;5040326;28;90622;-73
2022/04/15 08:14:46;;;;;;;3.17;1.07;;;22.50;46.80;;;;;;5039190;27;88562;-73
2022/04/15 08:17:15;;;;;;;2.77;1.30;;;22.40;46.70;;;;;;5039549;28;93831;-73
2022/04/15 08:19:43;;;;;;;1.10;1.03;;;22.40;46.60;;;;;;5037052;27;89081;-73
2022/04/15 08:22:11;;;;;;;1.77;1.23;;;22.40;46.50;;;;;;5039585;28;88789;-73
2022/04/15 08:24:42;;;;;;;2.07;1.43;;;22.40;46.50;;;;;;5038361;27;89573;-73
2022/04/15 08:27:11;;;;;;;1.30;1.20;;;22.40;46.40;;;;;;5040067;28;93185;-73
2022/04/15 08:29:39;;;;;;;2.83;1.57;;;22.40;46.30;;;;;;5037133;28;90412;-70
2022/04/15 08:32:08;;;;;;;2.70;1.77;;;22.40;46.20;;;;;;5040114;27;88867;-70
2022/04/15 08:34:38;;;;;;;2.40;1.90;;;22.30;46.00;;;;;;5039664;27;88621;-70
2022/04/15 08:37:07;;;;;;;1.30;1.20;;;22.30;45.90;;;;;;5039699;28;90761;-70
2022/04/15 08:39:35;;;;;;;1.23;1.00;;;22.20;45.80;;;;;;5039132;27;89013;-70
2022/04/15 08:42:03;;;;;;;1.40;1.30;;;22.20;45.80;;;;;;5040034;27;88566;-70
2022/04/15 08:44:31;;;;;;;5.17;1.20;;;22.10;45.60;;;;;;5037955;28;88534;-70
2022/04/15 08:46:59;;;;;;;1.40;1.10;;;22.10;45.50;;;;;;5039624;27;91978;-69
2022/04/15 08:49:27;;;;;;;1.40;1.30;;;22.00;45.50;;;;;;5040327;27;91805;-68
2022/04/15 08:51:57;;;;;;;1.17;0.97;;;22.00;45.40;;;;;;5039961;27;89867;-67
2022/04/15 08:54:25;;;;;;;2.27;1.10;;;21.90;45.30;;;;;;5039945;27;88635;-67
2022/04/15 08:56:53;;;;;;;1.43;0.80;;;22.00;45.30;;;;;;5037774;27;90674;-66
2022/04/15 08:59:21;;;;;;;2.00;1.00;;;22.00;45.20;;;;;;5038045;28;89506;-66
2022/04/15 09:01:50;;;;;;;1.00;0.90;;;22.10;45.20;;;;;;5039624;28;90992;-66
2022/04/15 09:04:19;;;;;;;0.80;0.80;;;22.10;45.20;;;;;;5039435;28;88618;-66
2022/04/15 09:06:51;;;;;;;1.27;1.17;;;22.10;45.10;;;;;;5037109;28;90639;-67
2022/04/15 09:09:24;;;;;;;5.77;0.90;;;22.20;45.10;;;;;;5037028;27;91517;-68
2022/04/15 09:11:52;;;;;;;3.40;0.77;;;22.20;45.00;;;;;;5040028;28;88282;-68
2022/04/15 09:14:21;;;;;;;1.30;1.03;;;22.20;45.70;;;;;;5039385;27;88605;-68
2022/04/15 09:16:49;;;;;;;2.97;0.83;;;22.20;44.90;;;;;;5037139;28;90459;-68
2022/04/15 09:19:18;;;;;;;3.33;1.07;;;22.30;44.90;;;;;;5039216;27;90202;-69
2022/04/15 09:21:51;;;;;;;1.53;0.90;;;22.30;44.90;;;;;;5039187;28;89827;-69
2022/04/15 09:24:27;;;;;;;1.50;0.87;;;22.30;44.80;;;;;;5039567;28;88455;-68
2022/04/15 09:26:55;;;;;;;6.33;1.10;;;22.30;44.80;;;;;;5036816;28;93925;-68
2022/04/15 09:29:26;;;;;;;0.70;0.70;;;22.30;44.70;;;;;;5039246;28;90538;-68
2022/04/15 09:31:55;;;;;;;1.67;0.70;;;22.30;44.70;;;;;;5038644;27;88385;-68
2022/04/15 09:34:23;;;;;;;1.27;0.90;;;22.30;44.70;;;;;;5038640;27;88636;-68
2022/04/15 09:36:51;;;;;;;2.20;1.10;;;22.30;44.70;;;;;;5038533;27;90715;-68
2022/04/15 09:39:19;;;;;;;0.63;0.63;;;22.30;44.60;;;;;;5039200;28;89188;-68
2022/04/15 09:41:54;;;;;;;1.83;0.90;;;22.40;44.70;;;;;;5038960;28;88544;-66
2022/04/15 09:44:22;;;;;;;1.70;0.67;;;22.40;44.80;;;;;;5036917;28;88490;-67
2022/04/15 09:46:52;;;;;;;1.27;0.80;;;22.40;44.70;;;;;;5039588;28;88468;-66
2022/04/15 09:49:20;;;;;;;0.80;0.80;;;22.40;44.70;;;;;;5036967;28;91354;-67
2022/04/15 09:51:51;;;;;;;0.50;0.50;;;22.40;44.70;;;;;;5038848;28;91705;-65
2022/04/15 09:54:23;;;;;;;0.87;0.83;;;22.40;44.60;;;;;;5036568;28;88545;-66
2022/04/15 09:56:53;;;;;;;1.57;0.83;;;22.40;44.60;;;;;;5038601;27;91306;-67
2022/04/15 09:59:23;;;;;;;0.73;0.73;;;22.40;44.60;;;;;;5036440;28;90172;-66
2022/04/15 10:01:54;;;;;;;1.10;0.70;;;22.40;44.60;;;;;;5038752;28;88911;-67
2022/04/15 10:04:23;;;;;;;4.30;0.97;;;22.40;44.60;;;;;;5032984;27;88518;-67
2022/04/15 10:06:51;;;;;;;0.67;0.67;;;22.50;44.60;;;;;;5038109;27;89795;-67
2022/04/15 10:09:19;;;;;;;0.87;0.60;;;22.40;44.50;;;;;;5038328;27;92749;-67
2022/04/15 10:11:48;;;;;;;0.93;0.70;;;22.40;44.60;;;;;;5037112;28;89205;-67
2022/04/15 10:14:19;;;;;;;1.50;0.70;;;22.40;44.50;;;;;;5038102;27;88550;-69
2022/04/15 10:16:47;;;;;;;0.63;0.60;;;22.40;44.50;;;;;;5035806;28;90648;-67
2022/04/15 10:19:15;;;;;;;1.90;0.80;;;22.40;44.50;;;;;;5038667;28;90572;-67
2022/04/15 10:21:44;;;;;;;2.83;0.90;;;22.40;44.50;;;;;;5035156;28;88838;-67
2022/04/15 10:24:12;;;;;;;1.00;0.90;;;22.40;44.40;;;;;;5037884;27;88398;-67
2022/04/15 10:26:41;;;;;;;1.50;1.00;;;22.40;44.40;;;;;;5037631;28;93827;-67
2022/04/15 10:29:09;;;;;;;2.47;0.83;;;22.40;44.40;;;;;;5038262;28;93386;-69
2022/04/15 10:31:40;;;;;;;2.10;0.60;;;22.40;44.30;;;;;;5038626;27;89040;-70
2022/04/15 10:34:12;;;;;;;1.47;0.87;;;22.40;44.30;;;;;;5029676;28;89241;-69
2022/04/15 10:36:44;;;;;;;3.10;0.97;;;22.40;44.30;;;;;;5034685;28;90136;-69
2022/04/15 10:39:22;;;;;;;1.40;0.90;;;22.40;44.30;;;;;;5040107;28;92575;-69
2022/04/15 10:41:58;;;;;;;2.03;1.10;;;22.30;44.20;;;;;;5021324;28;88808;-69
2022/04/15 10:44:27;;;;;;;1.37;0.70;;;22.30;44.20;;;;;;5022939;28;88567;-69
2022/04/15 10:47:01;;;;;;;0.63;0.63;;;22.30;44.20;;;;;;5022273;28;89622;-69
2022/04/15 10:49:30;;;;;;;2.37;1.00;;;22.20;44.10;;;;;;5022693;28;91270;-69
2022/04/15 10:52:01;;;;;;;2.00;1.10;;;22.20;44.10;;;;;;5033808;28;88664;-69
2022/04/15 10:54:42;;;;;;;3.07;1.00;;;22.20;44.10;;;;;;5043115;28;88422;-69
2022/04/15 10:57:11;;;;;;;1.37;0.80;;;22.20;44.10;;;;;;5042134;27;89715;-69
2022/04/15 11:02:42;;;;;;;0.60;0.60;;;22.30;44.10;;;;;;5042480;28;90013;-69
2022/04/15 11:05:12;;;;;;;1.37;1.07;;;22.30;44.10;;;;;;5041766;27;88617;-70
2022/04/15 11:07:58;;;;;;;1.00;0.90;;;22.30;44.00;;;;;;5042682;28;93289;-69
2022/04/15 11:11:02;;;;;;;0.70;0.70;;;22.30;44.10;;;;;;5042388;28;93078;-70
2022/04/15 11:13:49;;;;;;;1.20;1.10;;;22.40;44.20;;;;;;5000205;28;88430;-69
2022/04/15 11:16:18;;;;;;;0.60;0.60;;;22.50;44.10;;;;;;4988164;28;88560;-69
2022/04/15 11:18:50;;;;;;;1.70;0.90;;;22.40;44.00;;;;;;5026124;27;90071;-70
2022/04/15 11:21:27;;;;;;;1.33;0.80;;;22.40;44.00;;;;;;5041656;27;90081;-69
2022/04/15 11:23:55;;;;;;;2.23;0.70;;;22.50;44.10;;;;;;5041976;27;88362;-70
2022/04/15 11:26:25;;;;;;;1.67;0.80;;;22.40;43.90;;;;;;5042040;28;88536;-69
2022/04/15 11:28:54;;;;;;;0.70;0.70;;;22.40;44.60;;;;;;5041887;27;90706;-69
2022/04/15 11:31:22;;;;;;;1.80;1.03;;;22.50;44.00;;;;;;5042213;28;90032;-69
2022/04/15 11:33:52;;;;;;;0.87;0.87;;;22.50;44.00;;;;;;5041671;27;88629;-69
2022/04/15 11:36:20;;;;;;;1.13;0.80;;;22.40;43.90;;;;;;5042030;28;88444;-69
2022/04/15 11:38:49;;;;;;;1.23;0.83;;;22.50;43.90;;;;;;5041900;28;89477;-69
2022/04/15 11:41:18;;;;;;;0.90;0.80;;;22.50;43.90;;;;;;5040839;27;89272;-69
2022/04/15 11:43:55;;;;;;;1.30;0.70;;;22.50;43.90;;;;;;5041555;27;88850;-69
2022/04/15 11:46:23;;;;;;;1.00;0.67;;;22.50;43.80;;;;;;5041757;28;88602;-69
2022/04/15 11:48:55;;;;;;;1.47;0.70;;;22.50;43.80;;;;;;5041628;27;90565;-69
2022/04/15 11:51:25;;;;;;;1.57;1.00;;;22.50;43.90;;;;;;5040183;28;90013;-70
2022/04/15 11:53:54;;;;;;;0.90;0.90;;;22.50;43.80;;;;;;5041666;28;89239;-69
2022/04/15 11:56:24;;;;;;;1.73;1.03;;;22.50;43.80;;;;;;5041490;28;88411;-69
2022/04/15 11:58:53;;;;;;;0.97;0.80;;;22.50;43.80;;;;;;5041207;28;93370;-69
2022/04/15 12:01:27;;;;;;;1.30;0.90;;;22.60;43.90;;;;;;5041601;27;89391;-69
2022/04/15 12:03:57;;;;;;;1.13;1.00;;;22.50;43.70;;;;;;5041442;27;92218;-69
2022/04/15 12:06:25;;;;;;;0.97;0.90;;;22.50;43.70;;;;;;5042383;27;88232;-69
2022/04/15 12:08:54;;;;;;;0.73;0.70;;;22.50;43.70;;;;;;5041162;27;89414;-69
2022/04/15 12:11:23;;;;;;;0.83;0.83;;;22.50;43.70;;;;;;5040717;28;89629;-70
2022/04/15 12:13:56;;;;;;;0.83;0.80;;;22.50;43.60;;;;;;5041106;27;88346;-69
2022/04/15 12:16:24;;;;;;;1.50;0.90;;;22.50;43.60;;;;;;5041384;28;88573;-69
2022/04/15 12:18:53;;;;;;;1.13;0.63;;;22.50;43.60;;;;;;5041003;27;88378;-69
2022/04/15 12:21:23;;;;;;;1.77;0.73;;;22.60;43.70;;;;;;5041175;28;92379;-69
2022/04/15 12:24:20;;;;;;;2.73;1.10;;;22.60;43.70;;;;;;5040755;27;88927;-69
2022/04/15 12:26:49;;;;;;;1.60;0.60;;;22.50;43.60;;;;;;5032793;27;88486;-69
2022/04/15 12:32:25;;;;;;;1.40;0.90;;;22.60;43.50;;;;;;5040614;28;89984;-69
2022/04/15 12:35:10;;;;;;;0.87;0.50;;;22.70;43.70;;;;;;5040904;28;88454;-69
2022/04/15 12:37:42;;;;;;;0.73;0.40;;;22.70;43.60;;;;;;5040641;27;88655;-70
2022/04/15 12:40:29;;;;;;;0.47;0.47;;;22.70;44.30;;;;;;5040639;27;89439;-70
2022/04/15 12:43:07;;;;;;;0.60;0.47;;;22.70;43.60;;;;;;5040208;27;88634;-69
2022/04/15 12:45:46;;;;;;;2.43;0.80;;;22.80;43.70;;;;;;5041103;28;89768;-69
2022/04/15 12:48:14;;;;;;;1.27;0.83;;;22.80;43.70;;;;;;5041083;27;88659;-70
2022/04/15 12:50:46;;;;;;;3.17;0.70;;;22.80;43.70;;;;;;5040110;27;89902;-69
2022/04/15 12:53:19;;;;;;;1.23;0.87;;;22.80;43.60;;;;;;5040723;28;90137;-70
2022/04/15 12:55:48;;;;;;;0.70;0.67;;;22.80;43.50;;;;;;5040483;27;88903;-70
2022/04/15 12:58:20;;;;;;;0.97;0.97;;;22.80;43.50;;;;;;5040776;27;88639;-69
2022/04/15 13:00:50;;;;;;;1.70;1.07;;;22.80;43.50;;;;;;5040154;27;92601;-69
2022/04/15 13:03:19;;;;;;;0.50;0.50;;;22.80;43.50;;;;;;5040612;27;92381;-69